Latest Weather Observations for Toowoomba

IDQ60901

Issued at 8:05 pm EST Friday 1 August 2014 (issued every 10 minutes, with the page automatically refreshed every 10 minutes)

About weather observations | Map of Brisbane area stations | Latest observations for Brisbane area | Other Formats
Station Details ID: 041529 Name: TOOWOOMBA AIRPORT Lat: -27.54 Lon: 151.91 Height: 640.9 m
Data from the previous 72 hours. | See also: Recent months at Toowoomba
Date/Time
EST
Tmp

°C
App
Tmp
°C
Dew
Point
°C
Rel
Hum
%
Delta-T

°C
Wind Press
QNH
hPa
Press
MSL
hPa
Rain
since
9 am
mm
Dir
 
Spd
km/h
Gust
km/h
Spd
kts
Gust
kts
01/08:00pm 15.8 9.0 -2.2 29 7.6 WSW 24 32 13 17 1017.2 - 0.0
01/07:30pm 18.4 11.1 -2.5 24 9.0 W 26 39 14 21 1016.8 - 0.0
01/07:00pm 18.8 12.1 -1.1 26 8.8 W 24 35 13 19 1016.4 - 0.0
01/06:30pm 18.7 12.1 -0.2 28 8.5 W 24 32 13 17 1016.1 - 0.0
01/06:00pm 19.1 12.6 0.2 28 8.6 W 24 30 13 16 1015.6 1014.7 0.0
01/05:30pm 19.7 13.2 0.2 27 8.9 W 24 35 13 19 1015.4 - 0.0
01/05:00pm 20.8 13.6 0.6 26 9.4 W 28 44 15 24 1014.9 - 0.0
01/04:30pm 21.6 14.7 2.3 28 9.3 W 28 41 15 22 1014.8 - 0.0
01/04:09pm 21.9 14.6 2.6 28 9.4 W 30 50 16 27 1014.7 - 0.0
01/04:00pm 22.0 14.2 2.7 28 9.4 W 33 46 18 25 1014.8 - 0.0
01/03:30pm 22.7 14.9 2.8 27 9.8 W 33 54 18 29 1014.7 - 0.0
01/03:12pm 22.5 14.8 2.1 26 9.9 W 32 52 17 28 1014.6 - 0.0
01/03:00pm 22.8 15.6 2.8 27 9.9 WNW 30 39 16 21 1014.6 1013.8 0.0
01/02:30pm 22.8 15.7 3.4 28 9.7 WNW 30 41 16 22 1014.8 - 0.0
01/02:00pm 22.2 14.6 2.8 28 9.5 W 32 44 17 24 1015.1 - 0.0
01/01:37pm 22.7 15.1 3.8 29 9.5 WNW 33 52 18 28 1015.2 - 0.0
01/01:30pm 22.8 15.2 2.8 27 9.9 WNW 32 48 17 26 1015.2 - 0.0
01/01:00pm 22.7 15.9 5.2 32 9.0 WNW 30 43 16 23 1015.5 - 0.0
01/12:43pm 21.4 13.9 6.5 38 7.8 NW 35 54 19 29 1015.8 - 0.0
01/12:41pm 22.1 13.9 6.7 37 8.1 NW 39 54 21 29 1015.8 - 0.0
01/12:30pm 21.8 15.7 8.3 42 7.3 WNW 30 43 16 23 1016.1 - 0.0
01/12:00pm 21.1 15.7 9.4 47 6.4 WNW 28 35 15 19 1016.5 1015.7 0.0
01/11:30am 19.8 14.0 9.4 51 5.7 WNW 30 43 16 23 1017.2 - 0.0
01/11:00am 19.6 13.7 9.2 51 5.7 WNW 30 41 16 22 1017.6 - 0.0
01/10:30am 19.8 14.5 9.7 52 5.6 WNW 28 37 15 20 1017.9 - 0.0
01/10:00am 18.5 12.8 9.8 57 4.8 WNW 30 44 16 24 1018.0 - 0.0
01/09:30am 17.5 12.3 10.1 62 4.1 WNW 28 46 15 25 1018.3 - 0.0
01/09:00am 16.6 12.0 10.9 69 3.1 NW 26 35 14 19 1018.4 1017.6 0.0
01/08:30am 15.3 10.9 10.3 72 2.7 WNW 24 32 13 17 1018.4 - 0.0
01/08:00am 14.6 10.9 10.2 75 2.4 NW 20 28 11 15 1018.2 - 0.0
01/07:30am 13.5 10.2 9.7 78 2.0 NW 17 24 9 13 1017.9 - 0.0
01/07:00am 12.2 8.9 9.4 83 1.5 NNW 17 22 9 12 1017.8 - 0.0
01/06:30am 12.0 9.1 9.6 85 1.3 NNW 15 22 8 12 1017.9 - 0.0
01/06:00am 11.3 8.8 9.6 89 0.9 NNW 13 15 7 8 1017.7 1016.9 0.0
01/05:30am 11.0 8.4 9.3 89 0.9 NNW 13 17 7 9 1017.5 - 0.0
01/05:00am 10.9 8.6 9.0 88 1.0 NNW 11 15 6 8 1017.5 - 0.0
01/04:30am 11.5 8.9 9.4 87 1.1 N 13 17 7 9 1017.5 - 0.0
01/04:00am 11.8 8.8 9.4 85 1.3 N 15 19 8 10 1017.8 - 0.0
01/03:30am 12.0 8.3 9.4 84 1.4 N 19 22 10 12 1017.8 - 0.0
01/03:00am 12.3 9.3 9.1 81 1.7 N 15 20 8 11 1017.7 1016.9 0.0
01/02:30am 12.6 9.6 9.1 79 1.8 N 15 22 8 12 1017.8 - 0.0
01/02:00am 12.9 9.5 9.0 77 2.0 N 17 22 9 12 1017.9 - 0.0
01/01:30am 13.2 9.7 8.7 74 2.3 N 17 26 9 14 1018.2 - 0.0
01/01:00am 13.6 9.4 8.4 71 2.7 N 20 32 11 17 1018.4 - 0.0
01/12:30am 13.7 9.4 7.9 68 3.0 N 20 26 11 14 1018.8 - 0.0
01/12:00am 14.1 9.6 6.9 62 3.6 N 20 24 11 13 1019.0 1018.6 0.0
 
Date/Time
EST
Tmp

°C
App
Tmp
°C
Dew
Point
°C
Rel
Hum
%
Delta-T

°C
Wind Press
QNH
hPa
Press
MSL
hPa
Rain
since
9 am
mm
Dir
 
Spd
km/h
Gust
km/h
Spd
kts
Gust
kts
31/11:30pm 14.5 10.1 4.5 51 4.8 N 17 26 9 14 1019.2 - 0.0
31/11:00pm 15.3 11.1 3.8 46 5.5 N 15 20 8 11 1019.3 - 0.0
31/10:30pm 15.5 12.0 3.6 45 5.7 N 11 15 6 8 1019.3 - 0.0
31/10:00pm 15.5 12.0 3.6 45 5.7 N 11 15 6 8 1019.2 - 0.0
31/09:30pm 15.3 11.8 3.5 45 5.6 N 11 17 6 9 1019.3 - 0.0
31/09:00pm 15.2 12.1 3.4 45 5.6 N 9 13 5 7 1019.3 1018.9 0.0
31/08:30pm 15.4 12.8 3.2 44 5.7 N 6 9 3 5 1019.3 - 0.0
31/08:00pm 15.7 13.1 3.2 43 5.9 NNW 6 7 3 4 1019.3 - 0.0
31/07:30pm 16.1 13.3 2.9 41 6.2 N 7 9 4 5 1019.1 - 0.0
31/07:00pm 15.6 12.8 3.1 43 5.9 NNW 7 13 4 7 1018.9 - 0.0
31/06:30pm 16.2 13.0 2.9 41 6.3 NW 9 13 5 7 1018.4 - 0.0
31/06:00pm 16.8 13.2 2.8 39 6.6 NW 11 13 6 7 1018.1 1017.7 0.0
31/05:30pm 17.4 14.1 2.2 36 7.1 NW 9 13 5 7 1018.1 - 0.0
31/05:00pm 19.1 15.0 2.5 33 7.9 NW 13 19 7 10 1018.2 - 0.0
31/04:30pm 20.0 15.5 1.9 30 8.6 NW 15 20 8 11 1018.2 - 0.0
31/04:00pm 20.7 16.2 2.0 29 8.9 NW 15 20 8 11 1018.1 - 0.0
31/03:30pm 21.0 16.1 2.3 29 9.0 NW 17 24 9 13 1018.2 - 0.0
31/03:00pm 20.8 16.1 0.6 26 9.4 NW 15 24 8 13 1018.3 1017.9 0.0
31/02:30pm 20.8 14.4 1.1 27 9.3 NNW 24 28 13 15 1018.7 - 0.0
31/02:00pm 20.8 15.4 1.1 27 9.3 WNW 19 28 10 15 1019.0 - 0.0
31/01:30pm 20.5 16.0 2.3 30 8.7 W 15 20 8 11 1019.4 - 0.0
31/01:00pm 19.9 14.7 2.3 31 8.4 NW 19 30 10 16 1020.0 - 0.0
31/12:30pm 19.9 14.6 3.2 33 8.1 NNW 20 26 11 14 1020.7 - 0.0
31/12:00pm 18.9 13.6 3.1 35 7.6 WNW 20 28 11 15 1021.5 1021.2 0.0
31/11:30am 18.6 13.0 3.6 37 7.3 WNW 22 28 12 15 1022.3 - 0.0
31/11:00am 17.9 12.2 3.0 37 7.1 WNW 22 30 12 16 1022.7 - 0.0
31/10:30am 17.4 12.0 2.2 36 7.1 NW 20 26 11 14 1023.1 - 0.0
31/10:00am 17.0 11.0 -1.6 28 8.0 NW 20 30 11 16 1023.3 - 0.0
31/09:30am 17.8 13.1 -1.9 26 8.5 WNW 13 17 7 9 1023.5 - 0.0
31/09:00am 17.0 12.8 -0.7 30 7.7 N 11 15 6 8 1023.5 1023.2 0.0
31/08:30am 16.1 12.7 -0.6 32 7.3 N 7 11 4 6 1023.4 - 0.0
31/08:00am 15.1 11.8 0.2 36 6.6 N 7 9 4 5 1023.2 - 0.0
31/07:30am 11.2 8.3 -0.9 43 5.0 N 4 9 2 5 1022.8 - 0.0
31/07:00am 9.4 5.6 -1.0 48 4.2 N 9 11 5 6 1022.7 - 0.0
31/06:30am 10.5 6.9 0.3 49 4.3 N 9 11 5 6 1022.3 - 0.0
31/06:00am 10.1 6.5 0.7 52 4.0 NNE 9 11 5 6 1022.1 1021.7 0.0
31/05:30am 6.7 2.5 -1.2 57 3.1 E 11 11 6 6 1021.8 - 0.0
31/05:00am 9.7 5.9 -0.8 48 4.3 SSE 9 13 5 7 1021.6 - 0.0
31/04:30am 10.0 5.8 -0.8 47 4.4 S 11 11 6 6 1021.6 - 0.0
31/04:00am 10.9 7.5 -0.5 45 4.8 SE 7 9 4 5 1021.8 - 0.0
31/03:30am 9.7 6.3 -0.8 48 4.3 ESE 7 9 4 5 1021.8 - 0.0
31/03:00am 10.7 6.9 -0.4 46 4.6 E 9 9 5 5 1022.0 1021.6 0.0
31/02:30am 11.2 7.8 -0.6 44 4.9 ESE 7 9 4 5 1022.1 - 0.0
31/02:00am 8.2 4.7 -1.1 52 3.7 SE 7 9 4 5 1022.3 - 0.0
31/01:30am 11.5 8.2 -0.9 42 5.2 S 6 7 3 4 1022.4 - 0.0
31/01:00am 12.4 9.0 -0.8 40 5.6 S 7 9 4 5 1022.4 - 0.0
31/12:30am 11.9 8.1 -0.9 41 5.3 S 9 9 5 5 1022.5 - 0.0
31/12:00am 12.0 9.1 -1.2 40 5.5 SSE 4 7 2 4 1022.7 1022.3 0.0
 
Date/Time
EST
Tmp

°C
App
Tmp
°C
Dew
Point
°C
Rel
Hum
%
Delta-T

°C
Wind Press
QNH
hPa
Press
MSL
hPa
Rain
since
9 am
mm
Dir
 
Spd
km/h
Gust
km/h
Spd
kts
Gust
kts
30/11:30pm 11.8 8.3 -1.0 41 5.3 S 7 9 4 5 1022.8 - 0.0
30/11:00pm 11.7 7.8 -1.4 40 5.4 S 9 9 5 5 1022.8 - 0.0
30/10:30pm 11.9 8.2 -2.7 36 5.9 SSW 7 9 4 5 1023.1 - 0.0
30/10:00pm 13.0 9.0 -2.5 34 6.3 SSW 9 11 5 6 1023.3 - 0.0
30/09:30pm 13.4 9.3 -2.9 32 6.6 SSW 9 11 5 6 1023.3 - 0.0
30/09:00pm 13.8 9.7 -3.0 31 6.8 SSW 9 11 5 6 1023.3 1023.0 0.0
30/08:30pm 13.9 9.7 -3.8 29 7.1 SSW 9 9 5 5 1023.2 - 0.0
30/08:00pm 13.9 10.1 -3.8 29 7.1 SSW 7 9 4 5 1023.2 - 0.0
30/07:30pm 13.0 9.3 -4.6 29 6.8 SW 6 7 3 4 1023.1 - 0.0
30/07:00pm 14.5 10.6 -4.2 27 7.4 SW 7 7 4 4 1022.9 - 0.0
30/06:30pm 14.3 10.6 -4.4 27 7.4 SW 6 7 3 4 1022.5 - 0.0
30/06:00pm 15.1 10.9 -4.2 26 7.7 WSW 9 11 5 6 1022.4 1022.0 0.0
30/05:30pm 16.2 11.9 -4.4 24 8.3 WSW 9 13 5 7 1022.1 - 0.0
30/05:00pm 18.2 12.7 -5.1 20 9.5 WSW 15 19 8 10 1022.0 - 0.0
30/04:30pm 19.2 13.0 -5.0 19 9.9 WSW 19 24 10 13 1021.7 - 0.0
30/04:00pm 19.6 13.2 -4.6 19 10.1 W 20 24 11 13 1021.5 - 0.0
30/03:30pm 20.1 14.0 -3.5 20 10.1 W 19 24 10 13 1021.3 - 0.0
30/03:00pm 19.9 13.7 -4.4 19 10.1 W 19 30 10 16 1021.3 1020.9 0.0
30/02:30pm 20.1 13.7 -6.5 16 10.7 W 19 26 10 14 1021.3 - 0.0
30/02:00pm 19.8 13.5 -5.9 17 10.4 WSW 19 24 10 13 1021.5 - 0.0
30/01:30pm 19.6 12.7 -6.1 17 10.4 W 22 32 12 17 1021.8 - 0.0
30/01:00pm 19.3 12.5 -4.9 19 10.0 WSW 22 32 12 17 1022.3 - 0.0
30/12:30pm 19.3 13.4 -2.3 23 9.4 W 19 28 10 15 1022.7 - 0.0
30/12:00pm 18.8 12.5 -4.0 21 9.5 WSW 20 28 11 15 1023.4 1023.1 0.0
30/11:30am 17.7 11.8 -2.0 26 8.5 W 19 24 10 13 1024.0 - 0.0
30/11:00am 17.1 11.4 -1.1 29 7.9 SW 19 24 10 13 1024.5 - 0.0
30/10:30am 16.7 11.0 -0.9 30 7.7 SW 19 24 10 13 1024.7 - 0.0
30/10:00am 15.2 10.8 0.6 37 6.5 SW 13 20 7 11 1025.1 - 0.0
30/09:30am 14.5 10.2 1.1 40 6.0 SW 13 17 7 9 1025.3 - 0.0
30/09:00am 13.3 9.2 0.0 40 5.7 WSW 11 15 6 8 1025.3 1024.9 0.0
30/08:30am 12.7 8.3 0.5 43 5.3 WSW 13 17 7 9 1025.0 - 0.0
30/08:00am 12.0 8.5 1.1 47 4.8 SW 9 13 5 7 1024.8 - 0.0
30/07:30am 9.6 5.9 0.0 51 4.0 SW 9 9 5 5 1024.7 - 0.0
30/07:00am 9.9 6.8 0.3 51 4.0 W 6 7 3 4 1024.4 - 0.0
30/06:30am 9.3 6.2 0.0 52 3.9 W 6 6 3 3 1024.3 - 0.0
30/06:00am 9.3 6.0 0.0 52 3.8 W 7 7 4 4 1024.0 1023.6 0.0
30/05:30am 9.7 7.7 -0.2 50 4.1 CALM 0 0 0 0 1023.7 - 0.0
30/05:00am 9.7 7.3 -0.2 50 4.1 SW 2 6 1 3 1023.5 - 0.0
30/04:30am 10.0 6.2 -0.5 48 4.3 SSW 9 11 5 6 1023.2 - 0.0
30/04:00am 10.4 6.6 -0.4 47 4.5 SSW 9 11 5 6 1023.1 - 0.0
30/03:30am 10.2 6.5 -0.3 48 4.4 S 9 11 5 6 1023.0 - 0.0
30/03:00am 10.5 6.8 0.0 48 4.4 SSW 9 13 5 7 1023.1 1022.8 0.0
30/02:30am 10.3 6.2 0.1 49 4.3 SSW 11 15 6 8 1023.1 - 0.0
30/02:00am 11.1 6.6 -0.1 46 4.7 SSW 13 17 7 9 1023.3 - 0.0
30/01:30am 10.4 6.3 -0.1 48 4.4 S 11 15 6 8 1023.5 - 0.0
30/01:00am 10.7 7.0 -0.1 47 4.5 S 9 13 5 7 1023.9 - 0.0
30/12:30am 10.9 7.7 -0.2 46 4.7 S 6 9 3 5 1024.0 - 0.0
30/12:00am 11.5 7.4 0.0 45 4.9 SSW 11 15 6 8 1024.1 1023.7 0.0
 
Date/Time
EST
Tmp

°C
App
Tmp
°C
Dew
Point
°C
Rel
Hum
%
Delta-T

°C
Wind Press
QNH
hPa
Press
MSL
hPa
Rain
since
9 am
mm
Dir
 
Spd
km/h
Gust
km/h
Spd
kts
Gust
kts
29/11:30pm 11.6 7.1 -0.2 44 5.0 SSW 13 19 7 10 1024.0 - 0.0
29/11:00pm 10.6 7.2 -0.5 46 4.6 SSW 7 9 4 5 1023.9 - 0.0
29/10:30pm 11.1 7.7 -0.7 44 4.9 S 7 9 4 5 1024.0 - 0.0
29/10:00pm 12.1 8.3 -0.4 42 5.3 S 9 13 5 7 1023.9 - 0.0
29/09:30pm 12.3 8.6 -0.2 42 5.3 SSW 9 11 5 6 1023.5 - 0.0
29/09:00pm 12.3 8.6 -0.2 42 5.3 SSW 9 11 5 6 1023.3 1023.0 0.0
29/08:30pm 12.3 8.2 -0.2 42 5.3 SSW 11 13 6 7 1023.1 - 0.0

Latest Capital City Observations: Canberra | Sydney | Melbourne | Brisbane | Adelaide | Perth | Hobart | Darwin

Other Formats:

Comma delimited format used in spreadsheet applications
http://www.bom.gov.au/fwo/IDQ60901/IDQ60901.95551.axf

JavaScript Object Notation format (JSON) in row-major order
http://www.bom.gov.au/fwo/IDQ60901/IDQ60901.95551.json